Time;durP1;ratioP1;P1;durP2;ratioP2;P2;SDS_P1;SDS_P2;PMS_P1;PMS_P2;Temp;Humidity;BMP_temperature;BMP_pressure;BME280_temperature;BME280_humidity;BME280_pressure;Samples;Min_cycle;Max_cycle;Signal;HPM_P1;HPM_P2
2022/01/01 00:02:07;;;;;;;107.72;58.65;;;10.70;99.90;;;;;;4912058;29;20063;-65
2022/01/01 00:04:33;;;;;;;121.47;62.30;;;10.70;99.90;;;;;;4911039;29;20045;-65
2022/01/01 00:06:59;;;;;;;117.50;59.63;;;10.70;99.90;;;;;;4908261;29;20075;-64
2022/01/01 00:09:24;;;;;;;104.43;50.93;;;10.70;99.90;;;;;;4895146;29;20299;-65
2022/01/01 00:11:50;;;;;;;104.63;52.37;;;10.60;99.90;;;;;;4920877;29;20055;-66
2022/01/01 00:14:16;;;;;;;101.33;49.13;;;10.60;99.90;;;;;;4943400;29;20043;-64
2022/01/01 00:16:41;;;;;;;126.63;55.80;;;10.60;99.90;;;;;;4921616;29;20346;-65
2022/01/01 00:19:07;;;;;;;110.17;60.13;;;10.60;99.90;;;;;;4926596;29;20044;-65
2022/01/01 00:21:32;;;;;;;117.53;53.80;;;10.60;99.90;;;;;;4928151;29;20051;-65
2022/01/01 00:23:58;;;;;;;117.53;61.30;;;10.60;99.90;;;;;;4942515;29;20292;-65
2022/01/01 00:26:24;;;;;;;113.97;56.17;;;10.70;99.90;;;;;;4910873;29;20169;-65
2022/01/01 00:28:49;;;;;;;98.33;47.13;;;10.60;99.90;;;;;;4942652;29;20351;-65
2022/01/01 00:31:15;;;;;;;96.50;43.78;;;10.60;99.90;;;;;;4909049;29;20175;-66
2022/01/01 00:33:41;;;;;;;100.15;45.70;;;10.60;99.90;;;;;;4927336;29;20060;-65
2022/01/01 00:36:06;;;;;;;100.85;44.83;;;10.60;99.90;;;;;;4927484;29;20068;-65
2022/01/01 00:38:32;;;;;;;103.33;48.27;;;10.60;99.90;;;;;;4910876;29;20044;-65
2022/01/01 00:40:58;;;;;;;99.28;45.60;;;10.60;99.90;;;;;;4926481;29;20040;-66
2022/01/01 00:43:26;;;;;;;90.13;39.88;;;10.60;99.90;;;;;;4910461;29;20555;-65
2022/01/01 00:45:52;;;;;;;92.85;41.33;;;10.60;99.90;;;;;;4927674;29;20051;-65
2022/01/01 00:48:18;;;;;;;80.82;38.80;;;10.60;99.90;;;;;;4898734;29;20052;-65
2022/01/01 00:50:43;;;;;;;95.70;39.90;;;10.50;99.90;;;;;;4908931;29;20448;-65
2022/01/01 00:53:09;;;;;;;83.63;35.90;;;10.60;99.90;;;;;;4892968;29;20048;-65
2022/01/01 00:55:35;;;;;;;89.17;37.77;;;10.50;99.90;;;;;;4891776;29;20296;-65
2022/01/01 00:58:01;;;;;;;116.80;50.97;;;10.50;99.90;;;;;;4925265;29;20480;-65
2022/01/01 01:00:26;;;;;;;99.25;46.38;;;10.50;99.90;;;;;;4910496;29;20292;-65
2022/01/01 01:02:52;;;;;;;85.00;36.10;;;10.50;99.90;;;;;;4932131;29;20500;-65
2022/01/01 01:05:18;;;;;;;79.47;35.13;;;10.40;99.90;;;;;;4891752;29;20048;-65
2022/01/01 01:07:44;;;;;;;80.67;33.30;;;10.40;99.90;;;;;;4920507;29;20351;-65
2022/01/01 01:10:12;;;;;;;86.22;34.13;;;10.40;99.90;;;;;;4927521;29;20288;-65
2022/01/01 01:12:42;;;;;;;103.45;52.22;;;10.40;99.90;;;;;;4925678;29;20048;-66
2022/01/01 01:15:11;;;;;;;99.35;46.50;;;10.30;99.90;;;;;;4910105;29;20055;-66
2022/01/01 01:17:37;;;;;;;136.73;71.25;;;10.30;99.90;;;;;;4910317;29;20096;-64
2022/01/01 01:20:04;;;;;;;118.53;57.38;;;10.30;99.90;;;;;;4927293;29;20048;-65
2022/01/01 01:22:33;;;;;;;92.88;43.33;;;10.30;99.90;;;;;;4927277;29;20048;-65
2022/01/01 01:25:00;;;;;;;97.38;42.33;;;10.30;99.90;;;;;;4893626;29;20086;-65
2022/01/01 01:27:28;;;;;;;95.85;40.38;;;10.30;99.90;;;;;;4908373;29;20053;-65
2022/01/01 01:29:53;;;;;;;85.47;35.90;;;10.30;99.90;;;;;;4891583;29;20079;-65
2022/01/01 01:32:19;;;;;;;82.00;33.58;;;10.20;99.90;;;;;;4891348;29;20056;-65
2022/01/01 01:34:45;;;;;;;86.90;31.17;;;10.20;99.90;;;;;;4899998;29;20052;-65
2022/01/01 01:37:10;;;;;;;83.87;33.87;;;10.20;99.90;;;;;;4938170;29;20321;-65
2022/01/01 01:39:36;;;;;;;73.85;28.55;;;10.20;99.90;;;;;;4908450;29;20285;-66
2022/01/01 01:42:02;;;;;;;89.03;29.07;;;10.10;99.90;;;;;;4890880;29;20052;-66
2022/01/01 01:44:42;;;;;;;69.90;26.40;;;10.10;99.90;;;;;;4906658;29;20053;-65
2022/01/01 01:47:15;;;;;;;75.97;26.27;;;10.10;99.90;;;;;;4910437;29;20044;-65
2022/01/01 01:49:42;;;;;;;74.53;27.13;;;10.10;99.90;;;;;;4911894;29;20055;-66
2022/01/01 01:52:08;;;;;;;81.93;27.58;;;10.10;99.90;;;;;;4911763;29;20048;-65
2022/01/01 01:54:34;;;;;;;73.25;27.88;;;10.00;99.90;;;;;;4910529;29;20060;-65
2022/01/01 01:57:00;;;;;;;75.75;28.52;;;10.00;99.90;;;;;;4910307;29;20049;-65
2022/01/01 01:59:26;;;;;;;76.18;29.17;;;10.10;99.90;;;;;;4911744;29;20067;-65
2022/01/01 02:01:52;;;;;;;88.27;32.23;;;10.10;99.90;;;;;;4911572;29;20161;-65
2022/01/01 02:04:21;;;;;;;81.20;30.75;;;10.10;99.90;;;;;;4894504;29;20297;-65
2022/01/01 02:06:48;;;;;;;82.15;31.02;;;10.10;99.90;;;;;;4907167;29;20108;-65
2022/01/01 02:09:14;;;;;;;77.07;30.27;;;10.10;99.90;;;;;;4911753;29;20062;-65
2022/01/01 02:11:41;;;;;;;78.35;28.98;;;10.10;99.90;;;;;;4941634;29;20045;-64
2022/01/01 02:14:21;;;;;;;103.90;32.03;;;10.10;99.90;;;;;;4941544;29;20261;-64
2022/01/01 02:17:08;;;;;;;94.53;35.05;;;10.20;99.90;;;;;;4906891;29;20048;-65
2022/01/01 02:20:01;;;;;;;89.50;33.25;;;10.20;99.90;;;;;;4892665;29;20045;-65
2022/01/01 02:22:36;;;;;;;104.38;36.80;;;10.20;99.90;;;;;;4891138;29;20056;-65
2022/01/01 02:25:02;;;;;;;102.80;42.05;;;10.20;99.90;;;;;;4891040;29;20048;-65
2022/01/01 02:27:28;;;;;;;;;;;10.30;99.90;;;;;;4908198;29;20116;-65
2022/01/01 02:29:54;;;;;;;126.47;47.40;;;10.20;99.90;;;;;;4892361;29;20305;-65
2022/01/01 02:32:19;;;;;;;138.20;53.07;;;10.30;99.90;;;;;;4923405;29;20158;-65
2022/01/01 02:34:45;;;;;;;124.37;49.80;;;10.30;99.90;;;;;;4890845;29;20308;-65
2022/01/01 02:37:11;;;;;;;127.57;47.03;;;10.40;99.90;;;;;;4888901;29;20318;-65
2022/01/01 02:39:36;;;;;;;138.70;48.13;;;10.40;99.90;;;;;;4893371;29;20570;-65
2022/01/01 02:42:06;;;;;;;116.47;49.90;;;10.40;99.90;;;;;;4907236;29;20296;-65
2022/01/01 02:44:31;;;;;;;126.10;50.65;;;10.40;99.90;;;;;;4929754;29;20327;-65
2022/01/01 02:46:57;;;;;;;137.00;50.35;;;10.50;99.90;;;;;;4928385;29;20500;-65
2022/01/01 02:49:23;;;;;;;117.10;47.63;;;10.50;99.90;;;;;;4932287;29;20040;-65
2022/01/01 02:51:49;;;;;;;;;;;10.50;99.90;;;;;;4909926;29;20095;-65
2022/01/01 02:54:15;;;;;;;145.25;53.40;;;10.50;99.90;;;;;;4909072;29;19923;-65
2022/01/01 02:56:40;;;;;;;144.30;48.88;;;10.50;99.90;;;;;;4908841;29;20045;-65
2022/01/01 02:59:06;;;;;;;119.30;47.05;;;10.50;99.90;;;;;;4907267;29;20041;-65
2022/01/01 03:01:32;;;;;;;121.00;46.13;;;10.50;99.90;;;;;;4890452;29;20044;-65
2022/01/01 03:03:57;;;;;;;120.95;44.20;;;10.60;99.90;;;;;;4906221;29;20557;-65
2022/01/01 03:06:23;;;;;;;123.07;41.67;;;10.60;99.90;;;;;;4893002;29;20052;-65
2022/01/01 03:08:55;;;;;;;108.50;40.00;;;10.60;99.90;;;;;;4909276;29;20052;-65
2022/01/01 03:11:21;;;;;;;113.22;39.38;;;10.60;99.90;;;;;;4926424;29;20337;-65
2022/01/01 03:13:47;;;;;;;104.15;37.78;;;10.60;99.90;;;;;;4891590;29;20441;-64
2022/01/01 03:16:12;;;;;;;108.25;37.72;;;10.60;99.90;;;;;;4893154;29;20049;-65
2022/01/01 03:18:38;;;;;;;96.93;36.17;;;10.60;99.90;;;;;;4910043;29;20049;-65
2022/01/01 03:21:05;;;;;;;104.50;37.70;;;10.60;99.90;;;;;;4908309;29;20052;-64
2022/01/01 03:23:30;;;;;;;97.30;37.53;;;10.60;99.90;;;;;;4908797;29;20048;-65
2022/01/01 03:25:56;;;;;;;101.43;38.58;;;10.60;99.90;;;;;;4908356;29;20060;-64
2022/01/01 03:28:22;;;;;;;113.88;39.35;;;10.60;99.90;;;;;;4910234;29;20048;-64
2022/01/01 03:30:48;;;;;;;101.22;37.92;;;10.60;99.90;;;;;;4908053;29;20586;-64
2022/01/01 03:33:13;;;;;;;109.75;38.85;;;10.60;99.90;;;;;;4909148;29;20040;-64
2022/01/01 03:35:39;;;;;;;111.37;38.07;;;10.60;99.90;;;;;;4909880;29;20041;-64
2022/01/01 03:38:05;;;;;;;105.90;37.10;;;10.60;99.90;;;;;;4908421;29;20137;-65
2022/01/01 03:40:30;;;;;;;104.77;38.93;;;10.60;99.90;;;;;;4908695;29;20048;-65
2022/01/01 03:42:56;;;;;;;104.97;38.95;;;10.60;99.90;;;;;;4891752;29;20329;-65
2022/01/01 03:45:22;;;;;;;109.53;39.33;;;10.60;99.90;;;;;;4908095;29;20059;-64
2022/01/01 03:47:47;;;;;;;98.07;39.08;;;10.60;99.90;;;;;;4908218;29;20309;-64
2022/01/01 03:50:13;;;;;;;93.37;36.20;;;10.60;99.90;;;;;;4909755;29;20048;-64
2022/01/01 03:52:43;;;;;;;100.10;37.47;;;10.60;99.90;;;;;;4911270;29;20080;-64
2022/01/01 03:55:10;;;;;;;109.80;38.47;;;10.60;99.90;;;;;;4890788;29;20296;-64
2022/01/01 03:57:36;;;;;;;95.25;37.65;;;10.60;99.90;;;;;;4902674;29;20048;-64
2022/01/01 04:00:07;;;;;;;94.60;35.97;;;10.60;99.90;;;;;;4907957;29;20044;-64
2022/01/01 04:02:33;;;;;;;96.70;34.58;;;10.60;99.90;;;;;;4939648;29;20059;-64
2022/01/01 04:04:59;;;;;;;102.15;36.00;;;10.60;99.90;;;;;;4891088;29;20546;-64
2022/01/01 04:07:25;;;;;;;94.90;34.20;;;10.60;99.90;;;;;;4899976;29;20053;-65
2022/01/01 04:09:51;;;;;;;99.80;33.92;;;10.60;99.90;;;;;;4908642;29;20072;-65
2022/01/01 04:12:17;;;;;;;95.47;33.17;;;10.60;99.90;;;;;;4909373;29;20040;-65
2022/01/01 04:14:42;;;;;;;90.20;34.15;;;10.60;99.90;;;;;;4907250;29;20109;-65
2022/01/01 04:17:10;;;;;;;92.93;33.85;;;10.60;99.90;;;;;;4907926;29;20060;-65
2022/01/01 04:19:42;;;;;;;104.65;32.13;;;10.50;99.90;;;;;;4907922;29;20101;-65
2022/01/01 04:22:13;;;;;;;98.72;32.80;;;10.50;99.90;;;;;;4907462;29;20065;-64
2022/01/01 04:24:40;;;;;;;102.40;32.17;;;10.50;99.90;;;;;;4908645;29;20461;-65
2022/01/01 04:27:07;;;;;;;90.50;31.88;;;10.50;99.90;;;;;;4909022;29;20071;-65
2022/01/01 04:29:33;;;;;;;90.78;32.35;;;10.50;99.90;;;;;;4907536;29;20052;-65
2022/01/01 04:32:00;;;;;;;81.88;31.40;;;10.50;99.90;;;;;;4892138;29;20069;-65
2022/01/01 04:34:26;;;;;;;90.28;32.40;;;10.50;99.90;;;;;;4907758;29;20063;-65
2022/01/01 04:37:01;;;;;;;;;;;10.50;99.90;;;;;;4896621;29;20072;-65
2022/01/01 04:39:27;;;;;;;89.03;32.03;;;10.50;99.90;;;;;;4908907;29;19930;-65
2022/01/01 04:41:53;;;;;;;93.85;33.70;;;10.50;99.90;;;;;;4921576;29;20058;-65
2022/01/01 04:44:18;;;;;;;82.10;30.73;;;10.50;99.90;;;;;;4929350;29;20087;-65
2022/01/01 04:46:44;;;;;;;93.15;33.60;;;10.50;99.90;;;;;;4916717;29;20080;-65
2022/01/01 04:49:10;;;;;;;88.57;33.70;;;10.50;99.90;;;;;;4927740;29;20051;-65
2022/01/01 04:51:35;;;;;;;86.27;31.63;;;10.50;99.90;;;;;;4942015;29;20044;-65
2022/01/01 04:54:02;;;;;;;103.27;35.23;;;10.50;99.90;;;;;;4910527;29;20304;-65
2022/01/01 04:56:32;;;;;;;92.85;35.35;;;10.50;99.90;;;;;;4925865;29;20048;-64
2022/01/01 04:58:58;;;;;;;93.45;34.60;;;10.50;99.90;;;;;;4909945;29;20055;-65
2022/01/01 05:01:23;;;;;;;90.70;33.23;;;10.60;99.90;;;;;;4942072;29;20055;-65
2022/01/01 05:03:49;;;;;;;93.27;35.73;;;10.50;99.90;;;;;;4927551;29;20059;-65
2022/01/01 05:06:20;;;;;;;156.82;70.85;;;10.50;99.90;;;;;;4941816;29;20324;-65
2022/01/01 05:08:45;;;;;;;129.80;50.90;;;10.50;99.90;;;;;;4895077;29;20091;-65
2022/01/01 05:11:11;;;;;;;110.57;42.07;;;10.50;99.90;;;;;;4927440;29;20044;-65
2022/01/01 05:13:37;;;;;;;106.05;42.22;;;10.60;99.90;;;;;;4910182;29;20048;-64
2022/01/01 05:16:03;;;;;;;106.20;41.28;;;10.50;99.90;;;;;;4907300;29;20044;-64
2022/01/01 05:18:29;;;;;;;97.63;42.65;;;10.50;99.90;;;;;;4908691;29;20052;-64
2022/01/01 05:20:54;;;;;;;93.25;41.85;;;10.60;99.90;;;;;;4929510;29;20679;-64
2022/01/01 05:23:20;;;;;;;105.37;45.07;;;10.60;99.90;;;;;;4913870;29;20063;-64
2022/01/01 05:25:45;;;;;;;108.13;47.95;;;10.60;99.90;;;;;;4945669;29;20052;-64
2022/01/01 05:28:11;;;;;;;112.33;48.70;;;10.60;99.90;;;;;;4930686;29;20082;-64
2022/01/01 05:30:37;;;;;;;116.27;51.13;;;10.60;99.90;;;;;;4913726;29;20076;-64
2022/01/01 05:33:03;;;;;;;124.90;52.57;;;10.60;99.90;;;;;;4914431;29;20515;-64
2022/01/01 05:35:29;;;;;;;132.15;57.00;;;10.60;99.90;;;;;;4913876;29;20296;-66
2022/01/01 05:37:55;;;;;;;122.50;54.00;;;10.60;99.90;;;;;;4930656;29;20059;-65
2022/01/01 05:40:21;;;;;;;129.87;58.50;;;10.60;99.90;;;;;;4912216;29;20056;-65
2022/01/01 05:42:46;;;;;;;141.30;60.30;;;10.60;99.90;;;;;;4913568;29;20289;-65
2022/01/01 05:45:12;;;;;;;135.68;60.83;;;10.70;99.90;;;;;;4931004;29;20044;-65
2022/01/01 05:47:38;;;;;;;138.85;61.53;;;10.60;99.90;;;;;;4896579;29;20052;-65
2022/01/01 05:50:04;;;;;;;121.47;58.83;;;10.70;99.90;;;;;;4915589;29;20476;-65
2022/01/01 05:52:30;;;;;;;129.05;59.47;;;10.60;99.90;;;;;;4930750;29;20299;-65
2022/01/01 05:54:56;;;;;;;137.23;57.75;;;10.70;99.90;;;;;;4913636;29;20518;-65
2022/01/01 05:57:22;;;;;;;127.63;55.53;;;10.60;99.90;;;;;;4930744;29;20055;-65
2022/01/01 05:59:47;;;;;;;133.55;56.95;;;10.60;99.90;;;;;;4913465;29;20048;-64
2022/01/01 06:02:13;;;;;;;131.07;56.15;;;10.60;99.90;;;;;;4913220;29;20053;-64
2022/01/01 06:04:39;;;;;;;117.70;51.83;;;10.60;99.90;;;;;;4911665;29;20044;-64
2022/01/01 06:07:05;;;;;;;129.30;50.17;;;10.60;99.90;;;;;;4918386;29;20138;-64
2022/01/01 06:09:30;;;;;;;104.75;45.15;;;10.60;99.90;;;;;;4930782;29;20288;-64
2022/01/01 06:11:56;;;;;;;109.78;41.78;;;10.60;99.90;;;;;;4912856;29;20129;-64
2022/01/01 06:14:22;;;;;;;83.68;38.90;;;10.60;99.90;;;;;;4930313;29;20686;-64
2022/01/01 06:16:48;;;;;;;108.10;41.97;;;10.60;99.90;;;;;;4921065;29;20052;-64
2022/01/01 06:19:14;;;;;;;110.53;41.33;;;10.50;99.90;;;;;;4910018;29;20048;-64
2022/01/01 06:21:40;;;;;;;107.80;39.95;;;10.50;99.90;;;;;;4911521;29;20040;-64
2022/01/01 06:24:06;;;;;;;105.50;38.05;;;10.50;99.90;;;;;;4913193;29;20068;-64
2022/01/01 06:26:32;;;;;;;109.03;37.75;;;10.50;99.90;;;;;;4930102;29;20056;-64
2022/01/01 06:28:59;;;;;;;119.85;35.72;;;10.50;99.90;;;;;;4930053;29;20040;-65
2022/01/01 06:31:25;;;;;;;120.78;36.20;;;10.50;99.90;;;;;;4943877;29;20075;-64
2022/01/01 06:33:51;;;;;;;132.85;39.00;;;10.50;99.90;;;;;;4912035;29;20048;-64
2022/01/01 06:36:17;;;;;;;109.85;35.53;;;10.50;99.90;;;;;;4929906;29;20063;-64
2022/01/01 06:38:44;;;;;;;117.78;36.17;;;10.50;99.90;;;;;;4912757;29;20425;-65
2022/01/01 06:41:11;;;;;;;119.90;36.42;;;10.50;99.90;;;;;;4929885;29;20412;-65
2022/01/01 06:43:37;;;;;;;126.15;34.40;;;10.50;99.90;;;;;;4928157;29;20048;-65
2022/01/01 06:46:04;;;;;;;113.53;33.63;;;10.50;99.90;;;;;;4929981;29;20048;-65
2022/01/01 06:48:29;;;;;;;127.60;34.72;;;10.50;99.90;;;;;;4912826;29;20052;-65
2022/01/01 06:50:55;;;;;;;125.10;32.87;;;10.50;99.90;;;;;;4942272;29;20070;-65
2022/01/01 06:53:21;;;;;;;107.53;34.22;;;10.50;99.90;;;;;;4911045;29;20317;-63
2022/01/01 06:55:47;;;;;;;113.65;32.42;;;10.60;99.90;;;;;;4929558;29;20052;-65
2022/01/01 06:58:12;;;;;;;109.27;32.50;;;10.60;99.90;;;;;;4929778;29;20096;-65
2022/01/01 07:00:38;;;;;;;105.10;33.07;;;10.60;99.90;;;;;;4908242;29;20296;-65
2022/01/01 07:03:04;;;;;;;103.00;32.93;;;10.60;99.90;;;;;;4909407;29;20378;-65
2022/01/01 07:05:29;;;;;;;113.25;34.65;;;10.60;99.90;;;;;;4910595;29;20783;-65
2022/01/01 07:07:56;;;;;;;94.38;31.17;;;10.60;99.90;;;;;;4908294;29;20055;-65
2022/01/01 07:10:21;;;;;;;106.57;31.90;;;10.60;99.90;;;;;;4929637;29;20048;-65
2022/01/01 07:12:47;;;;;;;128.02;32.00;;;10.60;99.90;;;;;;4913478;29;20052;-65
2022/01/01 07:15:15;;;;;;;102.07;30.80;;;10.60;99.90;;;;;;4893372;29;20076;-65
2022/01/01 07:17:42;;;;;;;101.10;30.95;;;10.70;99.90;;;;;;4910435;29;20059;-65
2022/01/01 07:20:08;;;;;;;;;;;10.70;99.90;;;;;;4910772;29;20060;-65
2022/01/01 07:22:45;;;;;;;90.38;28.27;;;10.60;99.90;;;;;;4901929;29;19923;-65
2022/01/01 07:25:11;;;;;;;;;;;10.60;99.90;;;;;;4912551;29;20056;-65
2022/01/01 07:27:37;;;;;;;96.90;29.42;;;10.60;99.90;;;;;;4911859;29;19923;-65
2022/01/01 07:30:05;;;;;;;85.53;27.15;;;10.60;99.90;;;;;;4911897;29;20044;-65
2022/01/01 07:32:31;;;;;;;83.60;28.60;;;10.70;99.90;;;;;;4911453;29;20071;-64
2022/01/01 07:34:56;;;;;;;95.97;28.53;;;10.70;99.90;;;;;;4927222;29;20063;-64
2022/01/01 07:37:22;;;;;;;95.77;28.27;;;10.70;99.90;;;;;;4928931;29;20311;-64
2022/01/01 07:39:48;;;;;;;98.20;30.27;;;10.70;99.90;;;;;;4927219;29;20041;-64
2022/01/01 07:42:13;;;;;;;86.40;29.37;;;10.70;99.90;;;;;;4911538;29;20056;-64
2022/01/01 07:44:40;;;;;;;92.95;29.48;;;10.70;99.90;;;;;;4911754;29;20040;-65
2022/01/01 07:47:06;;;;;;;101.78;29.52;;;10.70;99.90;;;;;;4911459;29;20063;-64
2022/01/01 07:49:33;;;;;;;88.95;29.33;;;10.70;99.90;;;;;;4911843;29;20044;-64
2022/01/01 07:51:59;;;;;;;95.65;28.95;;;10.80;99.90;;;;;;4921822;29;20051;-64
2022/01/01 07:54:24;;;;;;;91.57;28.00;;;10.80;99.90;;;;;;4901417;29;20079;-65
2022/01/01 07:56:50;;;;;;;98.53;30.23;;;10.80;99.90;;;;;;4911479;29;20087;-65
2022/01/01 07:59:16;;;;;;;97.40;30.67;;;10.80;99.90;;;;;;4928617;29;20075;-65
2022/01/01 08:01:43;;;;;;;95.65;29.40;;;10.80;99.90;;;;;;4928450;29;20292;-65
2022/01/01 08:04:09;;;;;;;96.38;31.02;;;10.80;99.90;;;;;;4941830;29;20047;-65
2022/01/01 08:06:40;;;;;;;;;;;10.80;99.90;;;;;;4912545;29;20048;-65
2022/01/01 08:09:08;;;;;;;109.00;30.70;;;10.80;99.90;;;;;;4928351;29;19973;-64
2022/01/01 08:11:34;;;;;;;116.45;35.05;;;10.80;99.90;;;;;;4911196;29;20503;-64
2022/01/01 08:13:59;;;;;;;123.87;38.33;;;10.80;99.90;;;;;;4928561;29;20055;-64
2022/01/01 08:16:25;;;;;;;113.33;36.43;;;10.90;99.90;;;;;;4928781;29;20320;-65
2022/01/01 08:18:51;;;;;;;118.13;37.20;;;10.90;99.90;;;;;;4907610;29;20445;-64
2022/01/01 08:21:16;;;;;;;107.27;36.80;;;10.90;99.90;;;;;;4892229;29;20052;-64
2022/01/01 08:23:42;;;;;;;116.53;35.60;;;11.00;99.90;;;;;;4909066;29;20052;-64
2022/01/01 08:26:08;;;;;;;105.85;36.42;;;10.90;99.90;;;;;;4929579;29;20063;-64
2022/01/01 08:28:34;;;;;;;111.87;34.37;;;11.00;99.90;;;;;;4918303;29;20044;-64
2022/01/01 08:30:59;;;;;;;109.30;36.70;;;11.00;99.90;;;;;;4908802;29;20080;-65
2022/01/01 08:33:25;;;;;;;110.90;36.13;;;11.00;99.90;;;;;;4923528;29;20067;-65
2022/01/01 08:35:54;;;;;;;117.10;37.87;;;11.00;99.90;;;;;;4907640;29;20327;-65
2022/01/01 08:38:20;;;;;;;121.40;37.03;;;11.00;99.90;;;;;;4909639;29;20053;-65
2022/01/01 08:40:45;;;;;;;115.57;35.90;;;11.10;99.90;;;;;;4891681;29;20062;-65
2022/01/01 08:43:11;;;;;;;98.78;37.33;;;11.10;99.90;;;;;;4920239;29;20040;-65
2022/01/01 08:45:38;;;;;;;115.15;38.40;;;11.10;99.90;;;;;;4911552;29;20059;-65
2022/01/01 08:48:08;;;;;;;109.18;37.70;;;11.10;99.90;;;;;;4927780;29;20047;-65
2022/01/01 08:50:34;;;;;;;101.82;35.70;;;11.10;99.90;;;;;;4895008;29;20492;-65
2022/01/01 08:53:00;;;;;;;109.45;35.05;;;11.20;99.90;;;;;;4922934;29;20052;-65
2022/01/01 08:55:26;;;;;;;115.82;38.40;;;11.20;99.90;;;;;;4909698;29;20084;-65
2022/01/01 08:57:52;;;;;;;110.70;36.15;;;11.20;99.90;;;;;;4910533;29;20143;-65
2022/01/01 09:00:18;;;;;;;105.93;36.87;;;11.20;99.90;;;;;;4925914;29;20080;-65
2022/01/01 09:02:43;;;;;;;101.32;35.40;;;11.30;99.90;;;;;;4927821;29;20343;-65
2022/01/01 09:05:10;;;;;;;103.95;37.88;;;11.30;99.90;;;;;;4927509;29;20052;-65
2022/01/01 09:07:35;;;;;;;;;;;11.30;99.90;;;;;;4910731;29;20048;-63
2022/01/01 09:10:03;;;;;;;98.35;34.67;;;11.30;99.90;;;;;;4925959;29;19919;-63
2022/01/01 09:12:30;;;;;;;99.95;35.80;;;11.40;99.90;;;;;;4910264;29;20191;-64
2022/01/01 09:14:56;;;;;;;105.90;35.53;;;11.40;99.90;;;;;;4927755;29;20067;-64
2022/01/01 09:17:22;;;;;;;80.75;34.30;;;11.40;99.90;;;;;;4941775;29;20067;-63
2022/01/01 09:19:49;;;;;;;90.65;33.08;;;11.50;99.90;;;;;;4926161;29;20044;-64
2022/01/01 09:22:15;;;;;;;90.28;32.97;;;11.50;99.90;;;;;;4925976;29;20040;-63
2022/01/01 09:24:41;;;;;;;76.45;31.90;;;11.50;99.90;;;;;;4941906;29;20063;-64
2022/01/01 09:27:07;;;;;;;76.45;33.25;;;11.60;99.90;;;;;;4910121;29;20056;-64
2022/01/01 09:29:33;;;;;;;;;;;11.60;99.90;;;;;;4927641;29;20043;-64
2022/01/01 09:31:58;;;;;;;75.70;33.10;;;11.50;99.90;;;;;;4925625;29;19924;-64
2022/01/01 09:34:24;;;;;;;69.65;31.67;;;11.60;99.90;;;;;;4927383;29;20040;-64
2022/01/01 09:36:51;;;;;;;71.68;33.13;;;11.60;99.90;;;;;;4927023;29;20068;-64
2022/01/01 09:39:17;;;;;;;80.88;32.95;;;11.60;99.90;;;;;;4941936;29;20056;-64
2022/01/01 09:41:44;;;;;;;75.68;31.73;;;11.70;99.90;;;;;;4926741;29;20555;-65
2022/01/01 09:44:14;;;;;;;57.30;30.45;;;11.70;99.90;;;;;;4909505;29;20058;-64
2022/01/01 09:46:44;;;;;;;61.05;29.88;;;11.70;99.90;;;;;;4909835;29;20052;-64
2022/01/01 09:49:12;;;;;;;63.78;29.88;;;11.80;99.90;;;;;;4909933;29;20067;-64
2022/01/01 09:51:40;;;;;;;54.88;28.60;;;11.80;99.90;;;;;;4909787;29;20055;-65
2022/01/01 09:54:07;;;;;;;56.10;27.23;;;11.80;99.90;;;;;;4895624;29;20048;-65
2022/01/01 09:56:33;;;;;;;56.55;26.42;;;11.90;99.90;;;;;;4926849;29;20167;-65
2022/01/01 09:58:58;;;;;;;48.58;25.52;;;11.90;99.90;;;;;;4909995;29;20052;-64
2022/01/01 10:01:24;;;;;;;49.00;24.92;;;11.90;99.90;;;;;;4909692;29;20046;-65
2022/01/01 10:03:51;;;;;;;49.42;25.35;;;11.90;99.90;;;;;;4894239;29;20508;-65
2022/01/01 10:06:21;;;;;;;53.63;25.40;;;12.00;99.90;;;;;;4910461;29;20051;-65
2022/01/01 10:08:58;;;;;;;53.63;25.73;;;12.00;99.90;;;;;;4897854;29;20111;-64
2022/01/01 10:11:26;;;;;;;53.63;25.35;;;12.00;99.90;;;;;;4913448;29;20048;-64
2022/01/01 10:13:52;;;;;;;48.00;23.00;;;12.00;99.90;;;;;;4911819;29;20059;-64
2022/01/01 10:16:19;;;;;;;45.75;23.50;;;12.00;99.90;;;;;;4930222;29;20070;-64
2022/01/01 10:18:47;;;;;;;48.20;22.65;;;12.00;99.90;;;;;;4913405;29;20055;-64
2022/01/01 10:21:27;;;;;;;43.22;21.75;;;12.10;99.90;;;;;;4895187;29;20091;-64
2022/01/01 10:23:56;;;;;;;41.25;20.05;;;12.00;99.90;;;;;;4911391;29;20123;-64
2022/01/01 10:29:12;;;;;;;39.05;16.92;;;12.10;99.90;;;;;;4911159;29;20048;-64
2022/01/01 10:31:39;;;;;;;36.53;17.17;;;12.10;99.90;;;;;;4912111;29;20044;-64
2022/01/01 10:34:14;;;;;;;30.63;17.25;;;12.10;99.90;;;;;;4910105;29;20052;-64
2022/01/01 10:36:43;;;;;;;34.78;17.08;;;12.20;99.90;;;;;;4909719;29;20505;-64
2022/01/01 10:39:12;;;;;;;38.92;17.45;;;12.20;99.90;;;;;;4911104;29;20128;-64
2022/01/01 10:41:49;;;;;;;29.30;15.90;;;12.20;99.90;;;;;;4912039;29;20514;-64
2022/01/01 10:44:16;;;;;;;34.08;15.60;;;12.20;99.90;;;;;;4894137;29;20072;-64
2022/01/01 10:46:42;;;;;;;38.60;17.73;;;12.30;99.90;;;;;;4937286;29;20044;-64
2022/01/01 10:49:33;;;;;;;36.28;17.70;;;12.30;99.90;;;;;;4931589;29;20106;-64
2022/01/01 10:52:17;;;;;;;38.88;18.65;;;12.30;99.90;;;;;;4932276;29;20045;-64
2022/01/01 10:54:51;;;;;;;34.97;17.75;;;12.30;99.90;;;;;;4929760;29;20056;-64
2022/01/01 10:57:24;;;;;;;29.83;16.25;;;12.30;99.90;;;;;;4912972;29;20504;-64
2022/01/01 10:59:50;;;;;;;35.10;17.17;;;12.30;99.90;;;;;;4944112;29;20052;-64
2022/01/01 11:02:19;;;;;;;33.95;17.27;;;12.30;99.90;;;;;;4922984;29;20053;-64
2022/01/01 11:04:45;;;;;;;35.30;17.40;;;12.30;99.90;;;;;;4893876;29;20053;-64
2022/01/01 11:07:24;;;;;;;37.35;18.00;;;12.30;99.90;;;;;;4934365;29;20052;-64
2022/01/01 11:09:51;;;;;;;32.35;16.48;;;12.30;99.90;;;;;;4912992;29;20052;-64
2022/01/01 11:12:20;;;;;;;33.85;15.85;;;12.30;99.90;;;;;;4943569;29;20071;-64
2022/01/01 11:14:46;;;;;;;38.55;16.83;;;12.30;99.90;;;;;;4910855;29;20528;-64
2022/01/01 11:17:12;;;;;;;34.03;16.63;;;12.30;99.90;;;;;;4893735;29;21118;-65
2022/01/01 11:19:38;;;;;;;30.13;15.27;;;12.30;99.90;;;;;;4893329;29;20112;-64
2022/01/01 11:22:04;;;;;;;30.00;16.02;;;12.30;99.90;;;;;;4910618;29;20040;-65
2022/01/01 11:24:31;;;;;;;32.53;16.67;;;12.30;99.90;;;;;;4923005;29;20036;-64
2022/01/01 11:26:58;;;;;;;34.72;16.75;;;12.30;99.90;;;;;;4929450;29;20127;-64
2022/01/01 11:29:24;;;;;;;31.80;16.08;;;12.40;99.90;;;;;;4912423;29;20111;-64
2022/01/01 11:31:54;;;;;;;27.98;15.07;;;12.40;99.90;;;;;;4929516;29;20043;-64
2022/01/01 11:34:20;;;;;;;29.77;15.25;;;12.40;99.90;;;;;;4921186;29;20048;-64
2022/01/01 11:36:46;;;;;;;;;;;12.40;99.90;;;;;;4893833;29;20418;-64
2022/01/01 11:39:13;;;;;;;26.75;14.75;;;12.30;99.90;;;;;;4910001;29;19923;-65
2022/01/01 11:41:44;;;;;;;25.27;14.85;;;12.40;99.90;;;;;;4908445;29;20075;-64
2022/01/01 11:44:32;;;;;;;35.50;14.60;;;12.40;99.90;;;;;;4894126;29;20104;-64
2022/01/01 11:47:13;;;;;;;28.23;13.18;;;12.40;99.90;;;;;;4932647;29;20052;-64
2022/01/01 11:49:38;;;;;;;29.20;13.70;;;12.40;99.90;;;;;;4928771;29;20051;-64
2022/01/01 11:52:05;;;;;;;24.17;13.13;;;12.50;99.90;;;;;;4911277;29;20044;-64
2022/01/01 11:54:31;;;;;;;;;;;12.50;99.90;;;;;;4927797;29;20040;-64
2022/01/01 11:57:30;;;;;;;24.63;12.40;;;12.40;99.90;;;;;;4928757;29;20089;-64
2022/01/01 12:00:01;;;;;;;26.55;12.88;;;12.40;99.90;;;;;;4910955;29;20096;-64
2022/01/01 12:02:29;;;;;;;29.35;12.45;;;12.50;99.90;;;;;;4910753;29;20107;-64
2022/01/01 12:05:11;;;;;;;24.60;11.77;;;12.50;99.90;;;;;;4924076;29;20044;-64
2022/01/01 12:07:48;;;;;;;23.05;11.05;;;12.50;99.90;;;;;;4919481;29;20056;-64
2022/01/01 12:10:16;;;;;;;26.17;10.75;;;12.50;99.90;;;;;;4926202;29;20142;-64
2022/01/01 12:12:44;;;;;;;23.42;10.57;;;12.60;99.90;;;;;;4910340;29;20048;-64
2022/01/01 12:15:51;;;;;;;20.70;10.05;;;12.60;99.90;;;;;;4926468;29;20103;-64
2022/01/01 12:18:22;;;;;;;21.10;9.63;;;12.50;99.90;;;;;;4888347;29;20158;-64
2022/01/01 12:21:00;;;;;;;20.73;9.75;;;12.50;99.90;;;;;;4857591;29;20113;-64
2022/01/01 12:23:31;;;;;;;23.23;9.20;;;12.50;99.90;;;;;;4888401;29;20136;-64
2022/01/01 12:25:58;;;;;;;17.30;9.13;;;12.50;99.90;;;;;;4888766;29;20067;-64
2022/01/01 12:28:28;;;;;;;18.73;8.30;;;12.50;99.90;;;;;;4906791;29;20063;-64
2022/01/01 12:31:19;;;;;;;19.65;8.85;;;12.50;99.90;;;;;;4890431;29;20551;-64